sensor_id;sensor_type;location;lat;lon;timestamp;P1;durP1;ratioP1;P2;durP2;ratioP2
66830;SDS011;53739;44.224;22.528;2023-07-24T05:31:34;15.07;;;10.25;;
66830;SDS011;53739;44.224;22.528;2023-07-24T05:48:50;13.95;;;10.02;;
66830;SDS011;53739;44.224;22.528;2023-07-24T05:51:17;13.02;;;9.05;;
66830;SDS011;53739;44.224;22.528;2023-07-24T05:56:51;11.00;;;8.80;;
66830;SDS011;53739;44.224;22.528;2023-07-24T05:59:18;10.48;;;8.10;;
66830;SDS011;53739;44.224;22.528;2023-07-24T06:01:44;14.35;;;8.15;;
66830;SDS011;53739;44.224;22.528;2023-07-24T06:04:10;11.48;;;8.20;;
66830;SDS011;53739;44.224;22.528;2023-07-24T06:06:36;13.10;;;8.85;;
66830;SDS011;53739;44.224;22.528;2023-07-24T06:09:03;11.82;;;8.02;;
66830;SDS011;53739;44.224;22.528;2023-07-24T06:11:29;9.07;;;8.02;;
66830;SDS011;53739;44.224;22.528;2023-07-24T06:13:55;11.50;;;8.20;;
66830;SDS011;53739;44.224;22.528;2023-07-24T06:16:21;10.73;;;7.72;;
66830;SDS011;53739;44.224;22.528;2023-07-24T06:18:47;11.90;;;8.13;;
66830;SDS011;53739;44.224;22.528;2023-07-24T06:21:13;10.77;;;7.97;;
66830;SDS011;53739;44.224;22.528;2023-07-24T06:23:39;8.13;;;7.32;;
66830;SDS011;53739;44.224;22.528;2023-07-24T06:26:05;10.93;;;8.60;;
66830;SDS011;53739;44.224;22.528;2023-07-24T06:28:32;9.07;;;7.85;;
66830;SDS011;53739;44.224;22.528;2023-07-24T06:30:58;11.23;;;8.18;;
66830;SDS011;53739;44.224;22.528;2023-07-24T06:33:24;12.35;;;8.65;;
66830;SDS011;53739;44.224;22.528;2023-07-24T06:35:50;11.73;;;9.25;;
66830;SDS011;53739;44.224;22.528;2023-07-24T06:38:17;13.73;;;8.68;;
66830;SDS011;53739;44.224;22.528;2023-07-24T06:40:43;14.02;;;9.07;;
66830;SDS011;53739;44.224;22.528;2023-07-24T06:43:09;13.15;;;9.75;;
66830;SDS011;53739;44.224;22.528;2023-07-24T06:45:35;10.20;;;8.38;;
66830;SDS011;53739;44.224;22.528;2023-07-24T06:48:01;12.60;;;8.60;;
66830;SDS011;53739;44.224;22.528;2023-07-24T06:50:27;14.23;;;9.07;;
66830;SDS011;53739;44.224;22.528;2023-07-24T06:52:53;12.93;;;9.80;;
66830;SDS011;53739;44.224;22.528;2023-07-24T06:55:20;11.52;;;8.50;;
66830;SDS011;53739;44.224;22.528;2023-07-24T06:57:55;11.82;;;8.50;;
66830;SDS011;53739;44.224;22.528;2023-07-24T07:00:21;9.68;;;8.48;;
66830;SDS011;53739;44.224;22.528;2023-07-24T07:02:47;13.52;;;8.82;;
66830;SDS011;53739;44.224;22.528;2023-07-24T07:05:14;13.80;;;8.57;;
66830;SDS011;53739;44.224;22.528;2023-07-24T07:07:40;11.10;;;8.55;;
66830;SDS011;53739;44.224;22.528;2023-07-24T07:10:06;16.42;;;9.05;;
66830;SDS011;53739;44.224;22.528;2023-07-24T07:12:32;10.70;;;9.20;;
66830;SDS011;53739;44.224;22.528;2023-07-24T07:14:58;12.27;;;8.55;;
66830;SDS011;53739;44.224;22.528;2023-07-24T07:17:24;10.80;;;8.63;;
66830;SDS011;53739;44.224;22.528;2023-07-24T07:19:51;8.52;;;7.63;;
66830;SDS011;53739;44.224;22.528;2023-07-24T07:22:17;14.88;;;8.13;;
66830;SDS011;53739;44.224;22.528;2023-07-24T07:24:43;13.63;;;9.50;;
66830;SDS011;53739;44.224;22.528;2023-07-24T07:27:11;11.02;;;8.38;;
66830;SDS011;53739;44.224;22.528;2023-07-24T07:29:37;12.70;;;8.27;;
66830;SDS011;53739;44.224;22.528;2023-07-24T07:32:03;9.30;;;8.18;;
66830;SDS011;53739;44.224;22.528;2023-07-24T07:34:29;10.30;;;9.18;;
66830;SDS011;53739;44.224;22.528;2023-07-24T07:36:56;11.63;;;9.65;;
66830;SDS011;53739;44.224;22.528;2023-07-24T07:39:22;9.88;;;8.52;;
66830;SDS011;53739;44.224;22.528;2023-07-24T07:41:48;13.73;;;9.45;;
66830;SDS011;53739;44.224;22.528;2023-07-24T07:44:14;11.02;;;9.10;;
66830;SDS011;53739;44.224;22.528;2023-07-24T07:46:40;11.90;;;9.30;;
66830;SDS011;53739;44.224;22.528;2023-07-24T07:49:06;15.50;;;9.10;;
66830;SDS011;53739;44.224;22.528;2023-07-24T07:51:32;12.68;;;8.95;;
66830;SDS011;53739;44.224;22.528;2023-07-24T07:53:58;14.50;;;8.88;;
66830;SDS011;53739;44.224;22.528;2023-07-24T07:56:24;11.15;;;7.82;;
66830;SDS011;53739;44.224;22.528;2023-07-24T07:58:51;11.02;;;8.57;;
66830;SDS011;53739;44.224;22.528;2023-07-24T08:01:17;10.23;;;8.18;;
66830;SDS011;53739;44.224;22.528;2023-07-24T08:03:43;10.13;;;8.13;;
66830;SDS011;53739;44.224;22.528;2023-07-24T08:06:09;10.02;;;8.50;;
66830;SDS011;53739;44.224;22.528;2023-07-24T08:08:35;10.90;;;8.90;;
66830;SDS011;53739;44.224;22.528;2023-07-24T08:11:05;11.65;;;8.48;;
66830;SDS011;53739;44.224;22.528;2023-07-24T08:13:31;12.52;;;8.52;;
66830;SDS011;53739;44.224;22.528;2023-07-24T08:15:58;11.02;;;8.60;;
66830;SDS011;53739;44.224;22.528;2023-07-24T08:18:25;10.38;;;9.25;;
66830;SDS011;53739;44.224;22.528;2023-07-24T08:20:51;11.88;;;9.55;;
66830;SDS011;53739;44.224;22.528;2023-07-24T08:23:17;12.90;;;9.60;;
66830;SDS011;53739;44.224;22.528;2023-07-24T08:25:52;12.15;;;9.60;;
66830;SDS011;53739;44.224;22.528;2023-07-24T08:28:19;17.35;;;9.93;;
66830;SDS011;53739;44.224;22.528;2023-07-24T08:30:45;20.20;;;12.48;;
66830;SDS011;53739;44.224;22.528;2023-07-24T08:33:12;16.77;;;12.40;;
66830;SDS011;53739;44.224;22.528;2023-07-24T08:35:38;16.15;;;11.63;;
66830;SDS011;53739;44.224;22.528;2023-07-24T08:38:04;20.67;;;13.65;;
66830;SDS011;53739;44.224;22.528;2023-07-24T08:40:30;18.90;;;11.50;;
66830;SDS011;53739;44.224;22.528;2023-07-24T08:42:57;16.73;;;11.10;;
66830;SDS011;53739;44.224;22.528;2023-07-24T08:45:23;15.45;;;10.85;;
66830;SDS011;53739;44.224;22.528;2023-07-24T08:47:50;14.45;;;9.60;;
66830;SDS011;53739;44.224;22.528;2023-07-24T08:50:16;10.30;;;8.35;;
66830;SDS011;53739;44.224;22.528;2023-07-24T08:52:43;11.32;;;9.23;;
66830;SDS011;53739;44.224;22.528;2023-07-24T08:55:11;11.00;;;8.52;;
66830;SDS011;53739;44.224;22.528;2023-07-24T08:57:37;10.13;;;8.15;;
66830;SDS011;53739;44.224;22.528;2023-07-24T09:00:04;11.52;;;8.25;;
66830;SDS011;53739;44.224;22.528;2023-07-24T09:02:31;13.02;;;9.00;;
66830;SDS011;53739;44.224;22.528;2023-07-24T09:04:57;12.80;;;8.48;;
66830;SDS011;53739;44.224;22.528;2023-07-24T09:07:23;10.15;;;8.05;;
66830;SDS011;53739;44.224;22.528;2023-07-24T09:09:50;10.13;;;8.57;;
66830;SDS011;53739;44.224;22.528;2023-07-24T09:12:16;12.30;;;8.73;;
66830;SDS011;53739;44.224;22.528;2023-07-24T09:14:42;12.60;;;9.07;;
66830;SDS011;53739;44.224;22.528;2023-07-24T09:17:10;8.93;;;7.97;;
66830;SDS011;53739;44.224;22.528;2023-07-24T09:19:37;9.52;;;8.00;;
66830;SDS011;53739;44.224;22.528;2023-07-24T09:22:15;10.57;;;8.48;;
66830;SDS011;53739;44.224;22.528;2023-07-24T09:24:53;9.55;;;7.93;;
66830;SDS011;53739;44.224;22.528;2023-07-24T09:27:19;12.77;;;8.60;;
66830;SDS011;53739;44.224;22.528;2023-07-24T09:29:45;9.68;;;7.63;;
66830;SDS011;53739;44.224;22.528;2023-07-24T09:32:18;9.35;;;7.85;;
66830;SDS011;53739;44.224;22.528;2023-07-24T09:34:44;10.18;;;8.15;;
66830;SDS011;53739;44.224;22.528;2023-07-24T09:37:10;11.48;;;7.93;;
66830;SDS011;53739;44.224;22.528;2023-07-24T09:39:36;9.15;;;7.53;;
66830;SDS011;53739;44.224;22.528;2023-07-24T09:42:03;9.85;;;7.82;;
66830;SDS011;53739;44.224;22.528;2023-07-24T09:44:30;9.52;;;7.63;;
66830;SDS011;53739;44.224;22.528;2023-07-24T09:46:56;8.82;;;7.57;;
66830;SDS011;53739;44.224;22.528;2023-07-24T09:49:22;11.40;;;7.75;;
66830;SDS011;53739;44.224;22.528;2023-07-24T09:51:49;9.05;;;6.65;;
66830;SDS011;53739;44.224;22.528;2023-07-24T09:54:18;9.50;;;7.70;;
66830;SDS011;53739;44.224;22.528;2023-07-24T09:56:47;14.23;;;8.52;;
66830;SDS011;53739;44.224;22.528;2023-07-24T09:59:13;11.07;;;8.70;;
66830;SDS011;53739;44.224;22.528;2023-07-24T10:01:39;11.18;;;7.82;;
66830;SDS011;53739;44.224;22.528;2023-07-24T10:04:06;9.68;;;8.68;;
66830;SDS011;53739;44.224;22.528;2023-07-24T10:06:33;11.43;;;8.32;;
66830;SDS011;53739;44.224;22.528;2023-07-24T10:08:59;10.23;;;8.02;;
66830;SDS011;53739;44.224;22.528;2023-07-24T10:11:26;10.50;;;8.23;;
66830;SDS011;53739;44.224;22.528;2023-07-24T10:13:52;10.82;;;9.15;;
66830;SDS011;53739;44.224;22.528;2023-07-24T10:16:19;11.25;;;8.13;;
66830;SDS011;53739;44.224;22.528;2023-07-24T10:18:45;11.80;;;8.45;;
66830;SDS011;53739;44.224;22.528;2023-07-24T10:21:12;11.88;;;7.88;;
66830;SDS011;53739;44.224;22.528;2023-07-24T10:23:42;11.35;;;7.97;;
66830;SDS011;53739;44.224;22.528;2023-07-24T10:26:09;9.35;;;8.35;;
66830;SDS011;53739;44.224;22.528;2023-07-24T10:28:39;12.70;;;8.32;;
66830;SDS011;53739;44.224;22.528;2023-07-24T10:31:25;12.82;;;8.45;;
66830;SDS011;53739;44.224;22.528;2023-07-24T10:33:52;10.07;;;8.20;;
66830;SDS011;53739;44.224;22.528;2023-07-24T10:36:20;11.75;;;8.20;;
66830;SDS011;53739;44.224;22.528;2023-07-24T10:38:51;9.75;;;8.50;;
66830;SDS011;53739;44.224;22.528;2023-07-24T10:41:18;10.55;;;8.40;;
66830;SDS011;53739;44.224;22.528;2023-07-24T10:43:51;8.88;;;7.57;;
66830;SDS011;53739;44.224;22.528;2023-07-24T10:46:18;13.43;;;8.57;;
66830;SDS011;53739;44.224;22.528;2023-07-24T10:48:47;12.00;;;9.35;;
66830;SDS011;53739;44.224;22.528;2023-07-24T10:51:13;9.77;;;8.45;;
66830;SDS011;53739;44.224;22.528;2023-07-24T10:53:44;11.65;;;8.88;;
66830;SDS011;53739;44.224;22.528;2023-07-24T10:56:10;10.50;;;8.57;;
66830;SDS011;53739;44.224;22.528;2023-07-24T10:58:37;11.43;;;8.88;;
66830;SDS011;53739;44.224;22.528;2023-07-24T11:01:03;10.80;;;8.90;;
66830;SDS011;53739;44.224;22.528;2023-07-24T11:03:30;11.48;;;9.00;;
66830;SDS011;53739;44.224;22.528;2023-07-24T11:05:57;12.80;;;7.93;;
66830;SDS011;53739;44.224;22.528;2023-07-24T11:08:23;11.88;;;8.90;;
66830;SDS011;53739;44.224;22.528;2023-07-24T11:10:50;13.65;;;9.68;;
66830;SDS011;53739;44.224;22.528;2023-07-24T11:13:21;13.20;;;9.52;;
66830;SDS011;53739;44.224;22.528;2023-07-24T11:15:47;16.58;;;9.13;;
66830;SDS011;53739;44.224;22.528;2023-07-24T11:18:14;13.68;;;9.50;;
66830;SDS011;53739;44.224;22.528;2023-07-24T11:20:47;11.82;;;9.45;;
66830;SDS011;53739;44.224;22.528;2023-07-24T11:23:14;10.57;;;9.15;;
66830;SDS011;53739;44.224;22.528;2023-07-24T11:25:40;12.52;;;9.60;;
66830;SDS011;53739;44.224;22.528;2023-07-24T11:28:07;12.07;;;9.63;;
66830;SDS011;53739;44.224;22.528;2023-07-24T11:30:33;11.85;;;9.45;;
66830;SDS011;53739;44.224;22.528;2023-07-24T11:33:00;10.68;;;9.48;;
66830;SDS011;53739;44.224;22.528;2023-07-24T11:35:27;12.32;;;9.02;;
66830;SDS011;53739;44.224;22.528;2023-07-24T11:37:53;16.25;;;10.30;;
66830;SDS011;53739;44.224;22.528;2023-07-24T11:40:19;12.73;;;9.32;;
66830;SDS011;53739;44.224;22.528;2023-07-24T11:42:49;10.68;;;8.82;;
66830;SDS011;53739;44.224;22.528;2023-07-24T11:45:15;11.70;;;9.27;;
66830;SDS011;53739;44.224;22.528;2023-07-24T11:47:45;11.45;;;9.82;;
66830;SDS011;53739;44.224;22.528;2023-07-24T11:50:12;17.92;;;10.32;;
66830;SDS011;53739;44.224;22.528;2023-07-24T11:52:42;11.43;;;9.35;;
66830;SDS011;53739;44.224;22.528;2023-07-24T11:55:09;10.68;;;9.55;;
66830;SDS011;53739;44.224;22.528;2023-07-24T11:57:35;12.43;;;9.80;;
66830;SDS011;53739;44.224;22.528;2023-07-24T12:00:02;13.15;;;10.07;;
66830;SDS011;53739;44.224;22.528;2023-07-24T12:02:29;12.88;;;9.32;;
66830;SDS011;53739;44.224;22.528;2023-07-24T12:04:56;12.00;;;10.10;;
66830;SDS011;53739;44.224;22.528;2023-07-24T12:07:30;13.60;;;10.98;;
66830;SDS011;53739;44.224;22.528;2023-07-24T12:09:57;16.58;;;11.05;;
66830;SDS011;53739;44.224;22.528;2023-07-24T12:12:23;14.50;;;11.65;;
66830;SDS011;53739;44.224;22.528;2023-07-24T12:14:49;15.57;;;11.07;;
66830;SDS011;53739;44.224;22.528;2023-07-24T12:17:18;14.15;;;11.07;;
66830;SDS011;53739;44.224;22.528;2023-07-24T12:19:45;14.60;;;11.32;;
66830;SDS011;53739;44.224;22.528;2023-07-24T12:22:12;14.32;;;12.52;;
66830;SDS011;53739;44.224;22.528;2023-07-24T12:27:34;15.43;;;11.30;;
66830;SDS011;53739;44.224;22.528;2023-07-24T12:30:02;15.23;;;12.02;;
66830;SDS011;53739;44.224;22.528;2023-07-24T12:32:28;14.30;;;11.38;;
66830;SDS011;53739;44.224;22.528;2023-07-24T12:34:55;15.27;;;11.77;;
66830;SDS011;53739;44.224;22.528;2023-07-24T12:37:21;19.65;;;12.15;;
66830;SDS011;53739;44.224;22.528;2023-07-24T12:39:48;14.75;;;12.70;;
66830;SDS011;53739;44.224;22.528;2023-07-24T12:42:14;17.00;;;13.50;;
66830;SDS011;53739;44.224;22.528;2023-07-24T12:44:41;15.77;;;13.10;;
66830;SDS011;53739;44.224;22.528;2023-07-24T12:47:07;17.67;;;13.10;;
66830;SDS011;53739;44.224;22.528;2023-07-24T12:49:34;17.27;;;14.05;;
66830;SDS011;53739;44.224;22.528;2023-07-24T12:52:00;23.00;;;14.43;;
66830;SDS011;53739;44.224;22.528;2023-07-24T12:54:26;21.85;;;15.82;;
66830;SDS011;53739;44.224;22.528;2023-07-24T12:56:53;18.67;;;14.57;;
66830;SDS011;53739;44.224;22.528;2023-07-24T12:59:19;19.65;;;15.45;;
66830;SDS011;53739;44.224;22.528;2023-07-24T13:01:46;19.80;;;14.82;;
66830;SDS011;53739;44.224;22.528;2023-07-24T13:04:13;18.70;;;14.48;;
66830;SDS011;53739;44.224;22.528;2023-07-24T13:06:39;18.77;;;15.02;;
66830;SDS011;53739;44.224;22.528;2023-07-24T13:09:05;18.88;;;14.13;;
66830;SDS011;53739;44.224;22.528;2023-07-24T13:11:31;19.02;;;14.48;;
66830;SDS011;53739;44.224;22.528;2023-07-24T13:13:58;17.25;;;13.88;;
66830;SDS011;53739;44.224;22.528;2023-07-24T13:16:24;18.90;;;15.40;;
66830;SDS011;53739;44.224;22.528;2023-07-24T13:18:50;21.08;;;15.10;;
66830;SDS011;53739;44.224;22.528;2023-07-24T13:21:16;17.73;;;13.95;;
66830;SDS011;53739;44.224;22.528;2023-07-24T13:23:45;17.67;;;14.43;;
66830;SDS011;53739;44.224;22.528;2023-07-24T13:26:12;23.23;;;16.45;;
66830;SDS011;53739;44.224;22.528;2023-07-24T13:28:38;16.70;;;13.73;;
66830;SDS011;53739;44.224;22.528;2023-07-24T13:31:14;20.70;;;15.45;;
66830;SDS011;53739;44.224;22.528;2023-07-24T13:33:40;18.33;;;15.18;;
66830;SDS011;53739;44.224;22.528;2023-07-24T13:36:07;20.48;;;15.15;;
66830;SDS011;53739;44.224;22.528;2023-07-24T13:38:33;20.27;;;14.40;;
66830;SDS011;53739;44.224;22.528;2023-07-24T13:40:59;18.67;;;15.38;;
66830;SDS011;53739;44.224;22.528;2023-07-24T13:43:26;19.50;;;15.25;;
66830;SDS011;53739;44.224;22.528;2023-07-24T13:45:53;23.42;;;16.17;;
66830;SDS011;53739;44.224;22.528;2023-07-24T13:48:19;18.35;;;15.20;;
66830;SDS011;53739;44.224;22.528;2023-07-24T13:50:45;17.67;;;14.73;;
66830;SDS011;53739;44.224;22.528;2023-07-24T13:53:11;20.58;;;15.93;;
66830;SDS011;53739;44.224;22.528;2023-07-24T13:55:38;20.63;;;16.23;;
66830;SDS011;53739;44.224;22.528;2023-07-24T13:58:04;21.38;;;15.52;;
66830;SDS011;53739;44.224;22.528;2023-07-24T14:00:30;18.13;;;15.15;;
66830;SDS011;53739;44.224;22.528;2023-07-24T14:02:59;17.17;;;14.32;;
66830;SDS011;53739;44.224;22.528;2023-07-24T14:05:28;21.17;;;15.95;;
66830;SDS011;53739;44.224;22.528;2023-07-24T14:08:00;22.33;;;15.80;;
66830;SDS011;53739;44.224;22.528;2023-07-24T14:12:52;20.92;;;16.92;;
66830;SDS011;53739;44.224;22.528;2023-07-24T14:15:18;22.83;;;16.98;;
66830;SDS011;53739;44.224;22.528;2023-07-24T14:17:44;24.83;;;17.85;;
66830;SDS011;53739;44.224;22.528;2023-07-24T14:20:11;22.95;;;17.13;;
66830;SDS011;53739;44.224;22.528;2023-07-24T14:22:37;21.52;;;16.65;;
66830;SDS011;53739;44.224;22.528;2023-07-24T14:25:06;23.50;;;17.92;;
66830;SDS011;53739;44.224;22.528;2023-07-24T14:27:32;23.00;;;16.55;;
66830;SDS011;53739;44.224;22.528;2023-07-24T14:29:59;24.30;;;17.38;;
66830;SDS011;53739;44.224;22.528;2023-07-24T14:32:25;27.20;;;18.90;;
66830;SDS011;53739;44.224;22.528;2023-07-24T14:34:51;24.85;;;18.48;;
66830;SDS011;53739;44.224;22.528;2023-07-24T14:37:18;25.80;;;19.13;;
66830;SDS011;53739;44.224;22.528;2023-07-24T14:39:44;22.88;;;18.17;;
66830;SDS011;53739;44.224;22.528;2023-07-24T14:42:11;24.77;;;17.90;;
66830;SDS011;53739;44.224;22.528;2023-07-24T14:44:37;23.67;;;18.25;;
66830;SDS011;53739;44.224;22.528;2023-07-24T14:47:03;27.15;;;19.15;;
66830;SDS011;53739;44.224;22.528;2023-07-24T14:49:29;24.50;;;18.63;;
66830;SDS011;53739;44.224;22.528;2023-07-24T14:51:55;22.90;;;17.73;;
66830;SDS011;53739;44.224;22.528;2023-07-24T14:54:21;24.00;;;18.60;;
66830;SDS011;53739;44.224;22.528;2023-07-24T14:56:48;29.40;;;19.17;;
66830;SDS011;53739;44.224;22.528;2023-07-24T14:59:15;26.33;;;19.75;;
66830;SDS011;53739;44.224;22.528;2023-07-24T15:01:41;23.52;;;18.67;;
66830;SDS011;53739;44.224;22.528;2023-07-24T15:04:07;24.02;;;18.73;;
66830;SDS011;53739;44.224;22.528;2023-07-24T15:06:33;25.33;;;18.70;;
66830;SDS011;53739;44.224;22.528;2023-07-24T15:08:59;25.77;;;19.27;;
66830;SDS011;53739;44.224;22.528;2023-07-24T15:11:26;26.65;;;19.15;;
66830;SDS011;53739;44.224;22.528;2023-07-24T15:13:52;25.13;;;18.88;;
66830;SDS011;53739;44.224;22.528;2023-07-24T15:16:20;22.02;;;17.17;;
66830;SDS011;53739;44.224;22.528;2023-07-24T15:18:46;24.45;;;19.63;;
66830;SDS011;53739;44.224;22.528;2023-07-24T15:21:12;25.85;;;19.73;;
66830;SDS011;53739;44.224;22.528;2023-07-24T15:23:39;25.88;;;18.20;;
66830;SDS011;53739;44.224;22.528;2023-07-24T15:26:08;23.88;;;18.23;;
66830;SDS011;53739;44.224;22.528;2023-07-24T15:28:37;25.05;;;18.38;;
66830;SDS011;53739;44.224;22.528;2023-07-24T15:31:03;24.90;;;18.73;;
66830;SDS011;53739;44.224;22.528;2023-07-24T15:33:30;24.85;;;19.05;;
66830;SDS011;53739;44.224;22.528;2023-07-24T15:35:56;25.13;;;19.08;;
66830;SDS011;53739;44.224;22.528;2023-07-24T15:38:22;24.48;;;18.98;;
66830;SDS011;53739;44.224;22.528;2023-07-24T15:40:48;25.98;;;18.55;;
66830;SDS011;53739;44.224;22.528;2023-07-24T15:43:14;25.92;;;19.17;;
66830;SDS011;53739;44.224;22.528;2023-07-24T15:45:41;25.23;;;19.95;;
66830;SDS011;53739;44.224;22.528;2023-07-24T15:48:07;24.88;;;19.48;;
66830;SDS011;53739;44.224;22.528;2023-07-24T15:50:33;23.77;;;17.98;;
66830;SDS011;53739;44.224;22.528;2023-07-24T15:52:59;24.33;;;18.98;;
66830;SDS011;53739;44.224;22.528;2023-07-24T15:55:26;25.10;;;18.55;;
66830;SDS011;53739;44.224;22.528;2023-07-24T15:57:52;26.65;;;17.65;;
66830;SDS011;53739;44.224;22.528;2023-07-24T16:00:18;35.35;;;20.75;;
66830;SDS011;53739;44.224;22.528;2023-07-24T16:02:44;24.80;;;19.15;;
66830;SDS011;53739;44.224;22.528;2023-07-24T16:05:17;30.50;;;20.00;;
66830;SDS011;53739;44.224;22.528;2023-07-24T16:07:44;25.02;;;19.10;;
66830;SDS011;53739;44.224;22.528;2023-07-24T16:10:10;28.20;;;19.23;;
66830;SDS011;53739;44.224;22.528;2023-07-24T16:12:38;102.82;;;26.00;;
66830;SDS011;53739;44.224;22.528;2023-07-24T16:15:05;141.57;;;31.58;;
66830;SDS011;53739;44.224;22.528;2023-07-24T16:17:32;28.45;;;18.77;;
66830;SDS011;53739;44.224;22.528;2023-07-24T16:19:58;39.35;;;19.70;;
66830;SDS011;53739;44.224;22.528;2023-07-24T16:22:24;49.55;;;20.52;;
66830;SDS011;53739;44.224;22.528;2023-07-24T16:24:50;24.83;;;19.13;;
66830;SDS011;53739;44.224;22.528;2023-07-24T16:27:19;22.55;;;17.63;;
66830;SDS011;53739;44.224;22.528;2023-07-24T16:42:43;26.05;;;19.20;;
66830;SDS011;53739;44.224;22.528;2023-07-24T16:45:11;28.23;;;19.95;;
66830;SDS011;53739;44.224;22.528;2023-07-24T16:47:41;22.85;;;18.17;;
66830;SDS011;53739;44.224;22.528;2023-07-24T16:50:07;27.30;;;19.08;;
66830;SDS011;53739;44.224;22.528;2023-07-24T16:52:39;26.00;;;18.60;;
66830;SDS011;53739;44.224;22.528;2023-07-24T17:00:41;25.92;;;19.52;;
66830;SDS011;53739;44.224;22.528;2023-07-24T17:03:07;29.30;;;20.70;;
66830;SDS011;53739;44.224;22.528;2023-07-24T17:05:33;30.33;;;20.40;;
66830;SDS011;53739;44.224;22.528;2023-07-24T17:07:59;26.48;;;20.73;;
66830;SDS011;53739;44.224;22.528;2023-07-24T17:10:25;27.83;;;20.20;;
66830;SDS011;53739;44.224;22.528;2023-07-24T17:12:52;24.50;;;19.23;;
66830;SDS011;53739;44.224;22.528;2023-07-24T17:15:18;29.40;;;20.27;;
66830;SDS011;53739;44.224;22.528;2023-07-24T17:17:44;30.25;;;20.70;;
66830;SDS011;53739;44.224;22.528;2023-07-24T17:20:11;31.27;;;19.95;;
66830;SDS011;53739;44.224;22.528;2023-07-24T17:22:37;31.98;;;20.73;;
66830;SDS011;53739;44.224;22.528;2023-07-24T17:25:03;26.63;;;19.52;;
66830;SDS011;53739;44.224;22.528;2023-07-24T17:27:30;26.92;;;20.08;;
66830;SDS011;53739;44.224;22.528;2023-07-24T17:29:59;28.30;;;19.95;;
66830;SDS011;53739;44.224;22.528;2023-07-24T17:32:25;25.23;;;20.08;;
66830;SDS011;53739;44.224;22.528;2023-07-24T17:34:57;30.85;;;20.40;;
66830;SDS011;53739;44.224;22.528;2023-07-24T17:37:29;30.15;;;20.27;;
66830;SDS011;53739;44.224;22.528;2023-07-24T17:43:18;26.42;;;20.45;;
66830;SDS011;53739;44.224;22.528;2023-07-24T17:45:49;28.92;;;21.60;;
66830;SDS011;53739;44.224;22.528;2023-07-24T17:48:18;27.07;;;21.27;;
66830;SDS011;53739;44.224;22.528;2023-07-24T17:51:00;25.85;;;19.70;;
66830;SDS011;53739;44.224;22.528;2023-07-24T17:53:26;28.13;;;20.10;;
66830;SDS011;53739;44.224;22.528;2023-07-24T18:04:51;31.13;;;20.50;;
66830;SDS011;53739;44.224;22.528;2023-07-24T18:07:24;27.40;;;19.55;;
66830;SDS011;53739;44.224;22.528;2023-07-24T18:09:50;26.23;;;20.10;;
66830;SDS011;53739;44.224;22.528;2023-07-24T18:12:31;27.63;;;21.00;;
66830;SDS011;53739;44.224;22.528;2023-07-24T18:27:57;27.45;;;20.70;;
66830;SDS011;53739;44.224;22.528;2023-07-24T18:30:26;27.15;;;19.45;;
66830;SDS011;53739;44.224;22.528;2023-07-24T18:32:58;24.88;;;19.75;;
66830;SDS011;53739;44.224;22.528;2023-07-24T18:42:05;31.98;;;21.65;;
66830;SDS011;53739;44.224;22.528;2023-07-24T18:44:35;33.92;;;21.25;;
66830;SDS011;53739;44.224;22.528;2023-07-24T18:47:06;29.85;;;20.45;;
66830;SDS011;53739;44.224;22.528;2023-07-24T18:49:55;30.60;;;20.85;;
66830;SDS011;53739;44.224;22.528;2023-07-24T18:55:46;32.25;;;21.15;;
66830;SDS011;53739;44.224;22.528;2023-07-24T18:58:12;29.17;;;21.23;;
66830;SDS011;53739;44.224;22.528;2023-07-24T19:00:41;46.65;;;30.30;;
66830;SDS011;53739;44.224;22.528;2023-07-24T19:03:12;57.65;;;36.30;;
66830;SDS011;53739;44.224;22.528;2023-07-24T19:05:55;49.15;;;33.17;;
66830;SDS011;53739;44.224;22.528;2023-07-24T19:08:32;45.17;;;30.80;;
66830;SDS011;53739;44.224;22.528;2023-07-24T19:10:59;42.05;;;27.65;;
66830;SDS011;53739;44.224;22.528;2023-07-24T19:13:25;37.85;;;24.73;;
66830;SDS011;53739;44.224;22.528;2023-07-24T19:22:08;34.28;;;21.27;;
66830;SDS011;53739;44.224;22.528;2023-07-24T19:24:35;30.08;;;21.73;;
66830;SDS011;53739;44.224;22.528;2023-07-24T19:27:01;28.80;;;20.20;;
66830;SDS011;53739;44.224;22.528;2023-07-24T19:29:27;37.00;;;22.23;;
66830;SDS011;53739;44.224;22.528;2023-07-24T19:31:54;30.85;;;20.58;;
66830;SDS011;53739;44.224;22.528;2023-07-24T19:36:57;29.02;;;20.98;;
66830;SDS011;53739;44.224;22.528;2023-07-24T19:39:25;30.60;;;21.23;;
66830;SDS011;53739;44.224;22.528;2023-07-24T19:41:56;33.60;;;21.30;;
66830;SDS011;53739;44.224;22.528;2023-07-24T19:44:23;28.60;;;22.02;;
66830;SDS011;53739;44.224;22.528;2023-07-24T19:46:49;35.60;;;22.65;;
66830;SDS011;53739;44.224;22.528;2023-07-24T19:49:16;30.20;;;21.00;;
66830;SDS011;53739;44.224;22.528;2023-07-24T19:51:44;35.88;;;21.35;;
66830;SDS011;53739;44.224;22.528;2023-07-24T19:54:11;36.65;;;23.17;;
66830;SDS011;53739;44.224;22.528;2023-07-24T19:56:37;32.55;;;22.08;;
66830;SDS011;53739;44.224;22.528;2023-07-24T19:59:08;46.35;;;22.50;;
66830;SDS011;53739;44.224;22.528;2023-07-24T20:01:42;34.03;;;23.08;;
66830;SDS011;53739;44.224;22.528;2023-07-24T20:04:08;35.28;;;22.63;;
66830;SDS011;53739;44.224;22.528;2023-07-24T20:06:34;32.10;;;21.63;;
66830;SDS011;53739;44.224;22.528;2023-07-24T20:09:01;30.40;;;20.30;;
66830;SDS011;53739;44.224;22.528;2023-07-24T20:11:27;29.92;;;21.23;;
66830;SDS011;53739;44.224;22.528;2023-07-24T20:13:56;31.33;;;21.23;;
66830;SDS011;53739;44.224;22.528;2023-07-24T20:22:40;30.38;;;21.10;;
66830;SDS011;53739;44.224;22.528;2023-07-24T20:25:06;28.25;;;20.98;;
66830;SDS011;53739;44.224;22.528;2023-07-24T20:27:33;31.35;;;20.98;;
66830;SDS011;53739;44.224;22.528;2023-07-24T20:29:59;27.25;;;20.70;;
66830;SDS011;53739;44.224;22.528;2023-07-24T20:32:28;28.58;;;20.88;;
66830;SDS011;53739;44.224;22.528;2023-07-24T20:34:56;30.10;;;21.45;;
66830;SDS011;53739;44.224;22.528;2023-07-24T20:37:24;29.55;;;20.27;;
66830;SDS011;53739;44.224;22.528;2023-07-24T20:39:54;31.85;;;22.58;;
66830;SDS011;53739;44.224;22.528;2023-07-24T20:42:23;32.30;;;21.83;;
66830;SDS011;53739;44.224;22.528;2023-07-24T20:44:56;29.13;;;21.75;;
66830;SDS011;53739;44.224;22.528;2023-07-24T20:47:25;31.20;;;21.60;;
66830;SDS011;53739;44.224;22.528;2023-07-24T20:50:37;28.02;;;21.27;;
66830;SDS011;53739;44.224;22.528;2023-07-24T20:52:47;30.90;;;21.80;;
66830;SDS011;53739;44.224;22.528;2023-07-24T20:55:13;31.30;;;21.80;;
66830;SDS011;53739;44.224;22.528;2023-07-24T20:57:41;31.42;;;22.00;;
66830;SDS011;53739;44.224;22.528;2023-07-24T21:00:10;29.23;;;22.20;;
66830;SDS011;53739;44.224;22.528;2023-07-24T21:02:37;31.77;;;22.00;;
66830;SDS011;53739;44.224;22.528;2023-07-24T21:05:03;28.60;;;21.33;;
66830;SDS011;53739;44.224;22.528;2023-07-24T21:07:29;28.92;;;21.50;;
66830;SDS011;53739;44.224;22.528;2023-07-24T21:09:55;34.72;;;22.88;;
66830;SDS011;53739;44.224;22.528;2023-07-24T21:12:22;32.08;;;21.73;;
66830;SDS011;53739;44.224;22.528;2023-07-24T21:14:56;30.67;;;21.98;;
66830;SDS011;53739;44.224;22.528;2023-07-24T21:17:22;28.77;;;21.48;;